Etusivu
METAR-TAF:

METAR-TAF

Lentoasemat :

Bleibler Ranch Aerodrome

Clinton, Brittiläinen Kolumbia, Kanada

Leveyspiiri: 51-15-59N, Pituuspiiri: 121-41-05W, korkeus merenpinnasta: 1126 m

Tämänhetkinen sää

Tämä raportti tehtiin 25 minuuttia sitten, kello 16.49 UTC
Tuuli 5 kn etelästä/kaakosta, vaihdellen idän/kaakon ja etelän välillä
Lämpötila -1°C
Kosteus 100%
Ilmanpaine 1020 hPa
Näkyvyys: 1.0 km
utua

METAR: CYIN 131649Z AUTO 15005KT 110V180 5/8SM BR VV003 M01/M01 A3013 RMK SLP244

Aika: 09:14 (17:14 UTC)


TAF: puuttuu

Säähavainnot ja -ennusteet yli 4000 lentoasemalta (METAR- ja TAF-raportit).

Käytössä olevat sääasemat on merkitty karttaan keltaisilla ja punaisilla pisteillä.

Aseta hiiri pisteen päälle nähdäksesi sääaseman nimen.

Klikkaa sitten nähdäksesi säähavainnot ja -ennusteet.

Kartan vaihtaminen: klikkaa mustalla rastilla varustettuja vihreitä pisteitä, niin voit zoomata sisään; viivalla varustettua vihreää pistettä, niin voit zoomata ulos tai vihreitä nuolia, niin pääset viereisille kartoille.


METAR-TAF: